createdAt,value
2022-11-15T00:00:49.263Z,991.91
2022-11-15T00:01:49.236Z,991.90
2022-11-15T00:02:49.161Z,991.86
2022-11-15T00:03:49.194Z,991.84
2022-11-15T00:04:49.142Z,991.86
2022-11-15T00:05:49.187Z,991.84
2022-11-15T00:06:49.183Z,991.84
2022-11-15T00:07:55.575Z,991.93
2022-11-15T00:08:51.102Z,991.88
2022-11-15T00:09:50.112Z,991.93
2022-11-15T00:10:49.165Z,991.87
2022-11-15T00:11:49.098Z,991.93
2022-11-15T00:12:49.084Z,991.86
2022-11-15T00:13:49.175Z,991.91
2022-11-15T00:14:49.068Z,991.84
2022-11-15T00:15:49.097Z,991.83
2022-11-15T00:18:07.595Z,991.74
2022-11-15T00:19:07.620Z,991.74
2022-11-15T00:20:07.606Z,991.75
2022-11-15T00:21:07.630Z,991.65
2022-11-15T00:22:08.738Z,991.52
2022-11-15T00:23:08.729Z,991.69
2022-11-15T00:24:08.722Z,991.66
2022-11-15T00:25:08.711Z,991.71
2022-11-15T00:26:08.728Z,991.68
2022-11-15T00:27:08.694Z,991.66
2022-11-15T00:28:08.685Z,991.72
2022-11-15T00:29:08.685Z,991.66
2022-11-15T00:30:08.667Z,991.71
2022-11-15T00:31:08.700Z,991.70
2022-11-15T00:32:08.655Z,991.70
2022-11-15T00:33:08.649Z,991.71
2022-11-15T00:34:08.643Z,991.73
2022-11-15T00:35:08.633Z,991.70
2022-11-15T00:36:08.658Z,991.72
2022-11-15T00:37:08.609Z,991.75
2022-11-15T00:38:09.605Z,991.78
2022-11-15T00:39:08.603Z,991.78
2022-11-15T00:40:08.591Z,991.74
2022-11-15T00:41:09.898Z,991.82
2022-11-15T00:42:09.573Z,991.77
2022-11-15T00:43:08.569Z,991.79
2022-11-15T00:44:08.555Z,991.81
2022-11-15T00:45:08.555Z,991.83
2022-11-15T00:46:08.569Z,991.73
2022-11-15T00:47:08.536Z,991.75
2022-11-15T00:48:08.536Z,991.73
2022-11-15T00:49:08.525Z,991.74
2022-11-15T00:50:10.708Z,991.73
2022-11-15T00:51:09.538Z,991.70
2022-11-15T00:52:08.502Z,991.72
2022-11-15T00:53:08.498Z,991.69
2022-11-15T00:54:08.485Z,991.68
2022-11-15T00:55:08.483Z,991.69
2022-11-15T00:56:08.502Z,991.72
2022-11-15T00:57:08.461Z,991.69
2022-11-15T00:58:08.451Z,991.63
2022-11-15T00:59:08.454Z,991.67
2022-11-15T01:00:08.439Z,991.65
2022-11-15T01:01:08.509Z,991.62
2022-11-15T01:02:08.431Z,991.63
2022-11-15T01:03:08.423Z,991.63
2022-11-15T01:04:08.409Z,991.60
2022-11-15T01:05:08.406Z,991.57
2022-11-15T01:06:08.423Z,991.62
2022-11-15T01:07:08.457Z,991.63
2022-11-15T01:08:08.379Z,991.64
2022-11-15T01:09:08.377Z,991.54
2022-11-15T01:10:08.366Z,991.53
2022-11-15T01:11:08.395Z,991.57
2022-11-15T01:12:08.355Z,991.60
2022-11-15T01:13:08.350Z,991.53
2022-11-15T01:14:08.334Z,991.58
2022-11-15T01:15:08.333Z,991.55
2022-11-15T01:16:08.348Z,991.58
2022-11-15T01:17:08.310Z,991.65
2022-11-15T01:18:08.311Z,991.66
2022-11-15T01:19:08.300Z,991.64
2022-11-15T01:20:08.293Z,991.62
2022-11-15T01:21:08.307Z,991.62
2022-11-15T01:22:08.283Z,991.56
2022-11-15T01:23:08.266Z,991.55
2022-11-15T01:24:08.268Z,991.56
2022-11-15T01:25:08.264Z,991.64
2022-11-15T01:26:08.273Z,991.57
2022-11-15T01:27:08.234Z,991.54
2022-11-15T01:28:08.227Z,991.51
2022-11-15T01:29:08.226Z,991.50
2022-11-15T01:30:08.214Z,991.51
2022-11-15T01:31:08.237Z,991.48
2022-11-15T01:32:08.196Z,991.43
2022-11-15T01:33:08.188Z,991.48
2022-11-15T01:34:08.187Z,991.59
2022-11-15T01:35:08.172Z,991.60
2022-11-15T01:36:08.197Z,991.49
2022-11-15T01:37:08.172Z,991.49
2022-11-15T01:38:08.161Z,991.58
2022-11-15T01:39:08.147Z,991.48
2022-11-15T01:40:08.136Z,991.48
2022-11-15T01:41:08.156Z,991.44
2022-11-15T01:42:08.115Z,991.48
2022-11-15T01:43:08.114Z,991.47
2022-11-15T01:44:08.109Z,991.47
2022-11-15T01:45:08.095Z,991.49
2022-11-15T01:46:08.122Z,991.47
2022-11-15T01:47:08.076Z,991.47
2022-11-15T01:48:08.065Z,991.44
2022-11-15T01:49:08.064Z,991.46
2022-11-15T01:50:08.056Z,991.38
2022-11-15T01:51:08.071Z,991.42
2022-11-15T01:52:08.036Z,991.37
2022-11-15T01:53:08.030Z,991.46
2022-11-15T01:54:08.020Z,991.31
2022-11-15T01:55:08.017Z,991.36
2022-11-15T01:56:08.034Z,991.29
2022-11-15T01:57:08.002Z,991.32
2022-11-15T01:58:08.000Z,991.30
2022-11-15T01:59:07.989Z,991.35
2022-11-15T02:00:07.981Z,991.34
2022-11-15T02:01:08.029Z,991.28
2022-11-15T02:02:07.958Z,991.28
2022-11-15T02:03:07.957Z,991.30
2022-11-15T02:04:07.953Z,991.26
2022-11-15T02:05:07.936Z,991.25
2022-11-15T02:06:07.955Z,991.18
2022-11-15T02:07:07.964Z,991.19
2022-11-15T02:08:07.917Z,991.21
2022-11-15T02:09:07.912Z,991.19
2022-11-15T02:10:07.907Z,991.14
2022-11-15T02:11:07.924Z,991.10
2022-11-15T02:12:07.898Z,991.17
2022-11-15T02:13:07.884Z,991.21
2022-11-15T02:14:07.866Z,991.18
2022-11-15T02:15:07.869Z,991.13
2022-11-15T02:16:07.884Z,991.15
2022-11-15T02:17:07.847Z,991.16
2022-11-15T02:18:07.833Z,991.25
2022-11-15T02:19:07.826Z,991.19
2022-11-15T02:20:07.821Z,991.19
2022-11-15T02:21:07.809Z,991.16
2022-11-15T02:22:07.849Z,991.19
2022-11-15T02:23:07.797Z,991.18
2022-11-15T02:24:07.790Z,991.16
2022-11-15T02:25:07.787Z,991.19
2022-11-15T02:26:07.774Z,991.21
2022-11-15T02:27:07.795Z,991.11
2022-11-15T02:28:07.766Z,991.15
2022-11-15T02:29:07.752Z,991.17
2022-11-15T02:30:07.758Z,991.13
2022-11-15T02:31:07.739Z,991.11
2022-11-15T02:32:07.758Z,991.04
2022-11-15T02:33:07.722Z,991.13
2022-11-15T02:34:07.716Z,991.07
2022-11-15T02:35:07.708Z,991.07
2022-11-15T02:36:07.700Z,991.03
2022-11-15T02:37:07.726Z,991.11
2022-11-15T02:38:07.691Z,991.10
2022-11-15T02:39:07.680Z,991.15
2022-11-15T02:40:07.666Z,991.13
2022-11-15T02:41:07.658Z,991.06
2022-11-15T02:42:07.677Z,991.13
2022-11-15T02:43:08.529Z,991.12
2022-11-15T02:44:08.636Z,991.11
2022-11-15T02:45:07.626Z,991.12
2022-11-15T02:46:07.623Z,991.13
2022-11-15T02:47:07.635Z,991.13
2022-11-15T02:48:07.606Z,991.07
2022-11-15T02:49:07.595Z,991.08
2022-11-15T02:50:07.613Z,991.04
2022-11-15T02:51:07.580Z,991.03
2022-11-15T02:52:07.608Z,990.95
2022-11-15T02:53:07.573Z,990.89
2022-11-15T02:54:07.579Z,990.92
2022-11-15T02:55:07.547Z,990.91
2022-11-15T02:56:07.546Z,990.93
2022-11-15T02:57:07.570Z,990.88
2022-11-15T02:58:07.530Z,990.93
2022-11-15T02:59:07.519Z,990.91
2022-11-15T03:00:07.520Z,990.96
2022-11-15T03:01:07.554Z,990.85
2022-11-15T03:02:07.551Z,990.85
2022-11-15T03:03:07.493Z,990.86
2022-11-15T03:04:07.487Z,990.81
2022-11-15T03:05:07.482Z,990.86
2022-11-15T03:06:07.473Z,990.85
2022-11-15T03:07:07.531Z,990.81
2022-11-15T03:08:07.463Z,990.90
2022-11-15T03:09:07.448Z,990.88
2022-11-15T03:10:07.448Z,990.79
2022-11-15T03:11:07.434Z,990.73
2022-11-15T03:12:07.428Z,990.73
2022-11-15T03:13:07.455Z,990.82
2022-11-15T03:14:07.414Z,990.83
2022-11-15T03:15:07.412Z,990.77
2022-11-15T03:16:07.422Z,990.80
2022-11-15T03:17:07.388Z,990.78
2022-11-15T03:18:07.399Z,990.84
2022-11-15T03:19:07.376Z,990.82
2022-11-15T03:20:07.373Z,990.82
2022-11-15T03:21:07.398Z,990.83
2022-11-15T03:22:07.347Z,990.72
2022-11-15T03:23:07.334Z,990.77
2022-11-15T03:24:07.325Z,990.78
2022-11-15T03:25:07.323Z,990.76
2022-11-15T03:26:07.345Z,990.69
2022-11-15T03:27:07.304Z,990.70
2022-11-15T03:28:07.296Z,990.76
2022-11-15T03:29:07.294Z,990.73
2022-11-15T03:30:07.317Z,990.74
2022-11-15T03:31:07.291Z,990.71
2022-11-15T03:32:07.296Z,990.65
2022-11-15T03:33:07.262Z,990.60
2022-11-15T03:34:07.257Z,990.64
2022-11-15T03:35:07.251Z,990.55
2022-11-15T03:36:07.241Z,990.51
2022-11-15T03:37:07.265Z,990.63
2022-11-15T03:38:07.246Z,990.71
2022-11-15T03:39:07.216Z,990.66
2022-11-15T03:40:07.207Z,990.70
2022-11-15T03:41:07.202Z,990.61
2022-11-15T03:42:07.221Z,990.61
2022-11-15T03:43:07.181Z,990.66
2022-11-15T03:44:07.179Z,990.64
2022-11-15T03:45:07.163Z,990.63
2022-11-15T03:46:07.162Z,990.72
2022-11-15T03:47:07.178Z,990.68
2022-11-15T03:48:07.143Z,990.67
2022-11-15T03:49:07.142Z,990.74
2022-11-15T03:50:07.127Z,990.74
2022-11-15T03:51:07.123Z,990.74
2022-11-15T03:52:07.136Z,990.80
2022-11-15T03:53:07.115Z,990.77
2022-11-15T03:54:07.105Z,990.78
2022-11-15T03:55:07.099Z,990.77
2022-11-15T03:56:07.087Z,990.75
2022-11-15T03:57:07.097Z,990.74
2022-11-15T03:58:07.063Z,990.75
2022-11-15T03:59:07.068Z,990.72
2022-11-15T04:00:07.047Z,990.72
2022-11-15T04:01:07.072Z,990.80
2022-11-15T04:02:07.059Z,990.80
2022-11-15T04:03:07.049Z,990.81
2022-11-15T04:04:07.027Z,990.79
2022-11-15T04:05:07.023Z,990.77
2022-11-15T04:06:07.002Z,990.75
2022-11-15T04:07:07.090Z,990.70
2022-11-15T04:08:06.993Z,990.77
2022-11-15T04:09:07.000Z,990.76
2022-11-15T04:10:06.972Z,990.77
2022-11-15T04:11:06.967Z,990.75
2022-11-15T04:12:06.985Z,990.70
2022-11-15T04:13:06.950Z,990.77
2022-11-15T04:14:06.939Z,990.73
2022-11-15T04:15:06.955Z,990.84
2022-11-15T04:16:06.929Z,990.76
2022-11-15T04:17:06.953Z,990.79
2022-11-15T04:18:06.919Z,990.74
2022-11-15T04:19:06.907Z,990.66
2022-11-15T04:20:06.894Z,990.74
2022-11-15T04:21:06.894Z,990.72
2022-11-15T04:22:06.905Z,990.79
2022-11-15T04:23:06.911Z,990.70
2022-11-15T04:24:06.863Z,990.73
2022-11-15T04:25:07.858Z,990.73
2022-11-15T04:26:06.855Z,990.69
2022-11-15T04:27:06.841Z,990.69
2022-11-15T04:28:06.902Z,990.71
2022-11-15T04:29:06.836Z,990.69
2022-11-15T04:30:06.841Z,990.70
2022-11-15T04:31:06.817Z,990.65
2022-11-15T04:32:06.844Z,990.65
2022-11-15T04:33:06.796Z,990.69
2022-11-15T04:34:06.786Z,990.67
2022-11-15T04:35:06.803Z,990.62
2022-11-15T04:36:06.774Z,990.62
2022-11-15T04:37:06.783Z,990.59
2022-11-15T04:38:06.782Z,990.61
2022-11-15T04:39:06.755Z,990.63
2022-11-15T04:40:06.748Z,990.53
2022-11-15T04:41:06.738Z,990.56
2022-11-15T04:42:06.745Z,990.48
2022-11-15T04:43:06.756Z,990.47
2022-11-15T04:44:06.712Z,990.57
2022-11-15T04:45:06.705Z,990.50
2022-11-15T04:46:06.693Z,990.54
2022-11-15T04:47:06.690Z,990.48
2022-11-15T04:48:07.706Z,990.48
2022-11-15T04:49:06.671Z,990.51
2022-11-15T04:50:06.666Z,990.46
2022-11-15T04:51:06.652Z,990.45
2022-11-15T04:52:06.642Z,990.42
2022-11-15T04:53:06.670Z,990.41
2022-11-15T04:54:06.630Z,990.50
2022-11-15T04:55:08.323Z,990.44
2022-11-15T04:56:07.620Z,990.35
2022-11-15T04:57:06.609Z,990.48
2022-11-15T04:58:06.628Z,990.47
2022-11-15T04:59:06.589Z,990.46
2022-11-15T05:00:06.581Z,990.41
2022-11-15T05:01:06.682Z,990.43
2022-11-15T05:02:06.568Z,990.43
2022-11-15T05:03:06.595Z,990.41
2022-11-15T05:04:06.554Z,990.47
2022-11-15T05:05:06.548Z,990.46
2022-11-15T05:06:06.538Z,990.39
2022-11-15T05:07:06.633Z,990.39
2022-11-15T05:08:06.706Z,990.40
2022-11-15T05:09:06.521Z,990.44
2022-11-15T05:10:06.507Z,990.40
2022-11-15T05:11:06.505Z,990.39
2022-11-15T05:12:06.517Z,990.46
2022-11-15T05:13:06.497Z,990.50
2022-11-15T05:14:06.515Z,990.40
2022-11-15T05:15:06.475Z,990.38
2022-11-15T05:16:06.459Z,990.43
2022-11-15T05:17:07.465Z,990.40
2022-11-15T05:18:06.456Z,990.39
2022-11-15T05:19:06.467Z,990.43
2022-11-15T05:20:06.437Z,990.44
2022-11-15T05:21:06.425Z,990.41
2022-11-15T05:22:06.426Z,990.41
2022-11-15T05:23:06.426Z,990.40
2022-11-15T05:24:06.465Z,990.36
2022-11-15T05:25:06.402Z,990.39
2022-11-15T05:26:09.136Z,990.35
2022-11-15T05:27:07.389Z,990.37
2022-11-15T05:28:06.375Z,990.45
2022-11-15T05:29:06.405Z,990.43
2022-11-15T05:30:06.357Z,990.47
2022-11-15T05:31:06.355Z,990.44
2022-11-15T05:32:06.344Z,990.44
2022-11-15T05:33:06.341Z,990.46
2022-11-15T05:34:06.357Z,990.47
2022-11-15T05:35:06.321Z,990.50
2022-11-15T05:36:06.320Z,990.47
2022-11-15T05:37:06.303Z,990.47
2022-11-15T05:38:06.294Z,990.52
2022-11-15T05:39:06.316Z,990.45
2022-11-15T05:40:06.286Z,990.47
2022-11-15T05:41:06.280Z,990.53
2022-11-15T05:42:06.275Z,990.46
2022-11-15T05:43:06.264Z,990.50
2022-11-15T05:44:06.286Z,990.51
2022-11-15T05:45:06.247Z,990.52
2022-11-15T05:46:06.248Z,990.55
2022-11-15T05:47:06.229Z,990.55
2022-11-15T05:48:06.224Z,990.60
2022-11-15T05:49:06.240Z,990.57
2022-11-15T05:50:06.215Z,990.56
2022-11-15T05:51:06.201Z,990.64
2022-11-15T05:52:06.195Z,990.64
2022-11-15T05:53:06.187Z,990.60
2022-11-15T05:54:06.199Z,990.63
2022-11-15T05:55:06.167Z,990.62
2022-11-15T05:56:06.166Z,990.61
2022-11-15T05:57:06.157Z,990.59
2022-11-15T05:58:06.150Z,990.64
2022-11-15T05:59:06.163Z,990.62
2022-11-15T06:00:06.129Z,990.60
2022-11-15T06:01:06.121Z,990.58
2022-11-15T06:02:06.168Z,990.56
2022-11-15T06:03:06.107Z,990.61
2022-11-15T06:04:06.154Z,990.65
2022-11-15T06:05:06.093Z,990.59
2022-11-15T06:06:06.087Z,990.59
2022-11-15T06:07:06.124Z,990.56
2022-11-15T06:08:06.068Z,990.62
2022-11-15T06:09:06.087Z,990.61
2022-11-15T06:10:06.053Z,990.62
2022-11-15T06:11:06.050Z,990.65
2022-11-15T06:12:06.041Z,990.70
2022-11-15T06:13:06.037Z,990.68
2022-11-15T06:14:06.048Z,990.67
2022-11-15T06:15:07.019Z,990.64
2022-11-15T06:16:06.011Z,990.69
2022-11-15T06:17:38.853Z,990.74
2022-11-15T06:18:06.045Z,990.70
2022-11-15T06:19:05.988Z,990.69
2022-11-15T06:20:06.005Z,990.65
2022-11-15T06:21:05.974Z,990.69
2022-11-15T06:22:05.971Z,990.58
2022-11-15T06:23:05.970Z,990.60
2022-11-15T06:24:05.955Z,990.64
2022-11-15T06:25:06.027Z,990.64
2022-11-15T06:26:05.954Z,990.65
2022-11-15T06:27:05.953Z,990.65
2022-11-15T06:28:05.923Z,990.71
2022-11-15T06:29:05.913Z,990.71
2022-11-15T06:30:05.953Z,990.74
2022-11-15T06:31:05.903Z,990.71
2022-11-15T06:32:05.886Z,990.80
2022-11-15T06:33:05.886Z,990.76
2022-11-15T06:34:05.875Z,990.79
2022-11-15T06:35:05.889Z,990.83
2022-11-15T06:36:05.859Z,990.84
2022-11-15T06:37:05.855Z,990.79
2022-11-15T06:38:05.843Z,990.81
2022-11-15T06:39:05.839Z,990.81
2022-11-15T06:40:05.860Z,990.81
2022-11-15T06:41:05.839Z,990.76
2022-11-15T06:42:05.828Z,990.84
2022-11-15T06:43:05.808Z,990.83
2022-11-15T06:44:05.828Z,990.83
2022-11-15T06:45:05.819Z,990.83
2022-11-15T06:46:05.781Z,990.85
2022-11-15T06:47:05.785Z,990.83
2022-11-15T06:48:05.762Z,990.77
2022-11-15T06:49:09.572Z,990.74
2022-11-15T06:50:06.779Z,990.69
2022-11-15T06:51:05.743Z,990.75
2022-11-15T06:52:05.739Z,990.72
2022-11-15T06:53:05.729Z,990.61
2022-11-15T06:54:05.754Z,990.66
2022-11-15T06:55:05.724Z,990.65
2022-11-15T06:56:05.715Z,990.68
2022-11-15T06:57:05.703Z,990.69
2022-11-15T06:58:05.696Z,990.65
2022-11-15T06:59:05.712Z,990.66
2022-11-15T07:00:05.675Z,990.70
2022-11-15T07:01:05.794Z,990.65
2022-11-15T07:02:05.661Z,990.68
2022-11-15T07:03:05.674Z,990.67
2022-11-15T07:04:05.640Z,990.72
2022-11-15T07:05:05.671Z,990.74
2022-11-15T07:06:07.443Z,990.67
2022-11-15T07:07:06.719Z,990.77
2022-11-15T07:08:05.612Z,990.78
2022-11-15T07:09:05.615Z,990.74
2022-11-15T07:10:05.625Z,990.70
2022-11-15T07:11:05.584Z,990.70
2022-11-15T07:12:07.901Z,990.73
2022-11-15T07:13:06.572Z,990.72
2022-11-15T07:14:05.565Z,990.76
2022-11-15T07:15:05.606Z,990.76
2022-11-15T07:16:05.554Z,990.76
2022-11-15T07:17:05.559Z,990.73
2022-11-15T07:18:05.545Z,990.77
2022-11-15T07:19:05.542Z,990.65
2022-11-15T07:20:05.574Z,990.70
2022-11-15T07:21:05.524Z,990.76
2022-11-15T07:22:05.508Z,990.75
2022-11-15T07:23:05.507Z,990.75
2022-11-15T07:24:05.494Z,990.77
2022-11-15T07:25:05.524Z,990.82
2022-11-15T07:26:05.509Z,990.82
2022-11-15T07:27:05.475Z,990.76
2022-11-15T07:28:05.464Z,990.77
2022-11-15T07:29:05.448Z,990.78
2022-11-15T07:30:05.536Z,990.77
2022-11-15T07:31:05.455Z,990.83
2022-11-15T07:32:05.454Z,990.80
2022-11-15T07:33:05.423Z,990.92
2022-11-15T07:34:05.416Z,990.89
2022-11-15T07:35:05.449Z,990.90
2022-11-15T07:36:05.420Z,990.92
2022-11-15T07:37:05.393Z,990.90
2022-11-15T07:38:05.389Z,990.87
2022-11-15T07:39:05.381Z,990.85
2022-11-15T07:40:05.403Z,990.83
2022-11-15T07:41:05.363Z,990.76
2022-11-15T07:42:05.372Z,990.83
2022-11-15T07:43:05.352Z,990.81
2022-11-15T07:44:05.343Z,990.85
2022-11-15T07:45:05.360Z,990.80
2022-11-15T07:46:05.326Z,990.73
2022-11-15T07:47:05.320Z,990.79
2022-11-15T07:48:05.326Z,990.84
2022-11-15T07:49:05.357Z,990.82
2022-11-15T07:50:05.323Z,990.91
2022-11-15T07:51:08.776Z,990.88
2022-11-15T07:52:06.280Z,990.93
2022-11-15T07:53:05.271Z,990.84
2022-11-15T07:54:05.277Z,990.90
2022-11-15T07:55:05.265Z,990.91
2022-11-15T07:56:05.275Z,990.88
2022-11-15T07:57:07.526Z,990.92
2022-11-15T07:58:06.237Z,990.92
2022-11-15T07:59:05.252Z,990.89
2022-11-15T08:00:05.257Z,990.89
2022-11-15T08:01:05.395Z,990.82
2022-11-15T08:02:05.283Z,990.86
2022-11-15T08:03:05.214Z,990.84
2022-11-15T08:04:05.203Z,990.80
2022-11-15T08:05:05.212Z,990.79
2022-11-15T08:06:05.223Z,990.77
2022-11-15T08:07:05.228Z,990.78
2022-11-15T08:08:05.164Z,990.81
2022-11-15T08:09:05.156Z,990.74
2022-11-15T08:10:05.246Z,990.75
2022-11-15T08:11:05.191Z,990.73
2022-11-15T08:12:05.138Z,990.74
2022-11-15T08:13:05.192Z,990.70
2022-11-15T08:14:05.120Z,990.68
2022-11-15T08:15:05.117Z,990.62
2022-11-15T08:16:05.125Z,990.65
2022-11-15T08:17:05.097Z,990.64
2022-11-15T08:18:05.104Z,990.60
2022-11-15T08:19:05.077Z,990.59
2022-11-15T08:20:05.077Z,990.55
2022-11-15T08:21:05.074Z,990.57
2022-11-15T08:22:06.053Z,990.52
2022-11-15T08:23:05.066Z,990.54
2022-11-15T08:24:05.033Z,990.54
2022-11-15T08:25:05.029Z,990.47
2022-11-15T08:26:05.062Z,990.45
2022-11-15T08:27:05.101Z,990.43
2022-11-15T08:28:05.008Z,990.50
2022-11-15T08:29:05.025Z,990.51
2022-11-15T08:30:05.007Z,990.57
2022-11-15T08:31:05.004Z,990.56
2022-11-15T08:32:04.985Z,990.52
2022-11-15T08:33:04.963Z,990.55
2022-11-15T08:34:04.980Z,990.56
2022-11-15T08:35:04.947Z,990.50
2022-11-15T08:36:04.981Z,990.50
2022-11-15T08:37:04.947Z,990.40
2022-11-15T08:38:04.926Z,990.44
2022-11-15T08:39:04.916Z,990.41
2022-11-15T08:40:04.906Z,990.48
2022-11-15T08:41:04.932Z,990.40
2022-11-15T08:42:04.904Z,990.41
2022-11-15T08:43:04.915Z,990.41
2022-11-15T08:44:04.885Z,990.41
2022-11-15T08:45:04.875Z,990.32
2022-11-15T08:46:04.905Z,990.35
2022-11-15T08:47:04.887Z,990.36
2022-11-15T08:48:04.879Z,990.31
2022-11-15T08:49:04.900Z,990.37
2022-11-15T08:50:04.834Z,990.31
2022-11-15T08:51:04.850Z,990.27
2022-11-15T08:52:04.822Z,990.27
2022-11-15T08:53:04.812Z,990.28
2022-11-15T08:54:04.804Z,990.21
2022-11-15T08:55:04.803Z,990.22
2022-11-15T08:56:04.814Z,990.14
2022-11-15T08:57:04.785Z,990.23
2022-11-15T08:58:04.782Z,990.21
2022-11-15T08:59:04.822Z,990.19
2022-11-15T09:00:04.761Z,990.21
2022-11-15T09:01:04.817Z,990.23
2022-11-15T09:02:04.842Z,990.18
2022-11-15T09:03:04.733Z,990.15
2022-11-15T09:04:04.731Z,990.10
2022-11-15T09:05:04.723Z,990.08
2022-11-15T09:06:04.765Z,990.15
2022-11-15T09:07:04.783Z,990.16
2022-11-15T09:08:25.050Z,990.17
2022-11-15T09:09:06.686Z,990.20
2022-11-15T09:10:04.686Z,990.12
2022-11-15T09:11:04.672Z,990.09
2022-11-15T09:12:04.696Z,990.09
2022-11-15T09:13:04.668Z,990.08
2022-11-15T09:14:04.655Z,990.06
2022-11-15T09:15:04.646Z,990.06
2022-11-15T09:16:04.640Z,989.99
2022-11-15T09:17:04.652Z,989.98
2022-11-15T09:18:04.676Z,990.03
2022-11-15T09:19:08.944Z,989.97
2022-11-15T09:20:06.600Z,989.87
2022-11-15T09:21:04.584Z,989.88
2022-11-15T09:22:04.606Z,989.91
2022-11-15T09:23:04.570Z,989.82
2022-11-15T09:24:04.562Z,989.83
2022-11-15T09:25:08.544Z,989.82
2022-11-15T09:26:06.543Z,989.82
2022-11-15T09:27:04.575Z,989.82
2022-11-15T09:28:04.532Z,989.85
2022-11-15T09:29:04.538Z,989.83
2022-11-15T09:30:04.514Z,989.84
2022-11-15T09:31:04.525Z,989.88
2022-11-15T09:32:04.519Z,989.80
2022-11-15T09:33:04.566Z,989.82
2022-11-15T09:34:04.496Z,989.82
2022-11-15T09:35:04.487Z,989.86
2022-11-15T09:36:04.500Z,989.84
2022-11-15T09:37:04.464Z,989.85
2022-11-15T09:38:04.463Z,989.85
2022-11-15T09:39:04.450Z,989.79
2022-11-15T09:40:04.465Z,989.86
2022-11-15T09:41:04.472Z,989.82
2022-11-15T09:42:05.424Z,989.88
2022-11-15T09:43:04.454Z,989.90
2022-11-15T09:44:04.409Z,989.90
2022-11-15T09:45:04.396Z,989.85
2022-11-15T09:46:04.424Z,989.93
2022-11-15T09:47:04.411Z,989.94
2022-11-15T09:48:04.543Z,989.92
2022-11-15T09:49:04.415Z,989.92
2022-11-15T09:50:04.445Z,990.03
2022-11-15T09:51:04.367Z,989.95
2022-11-15T09:52:04.386Z,989.96
2022-11-15T09:53:04.365Z,989.92
2022-11-15T09:55:05.224Z,989.83
2022-11-15T09:55:06.324Z,989.87
2022-11-15T09:56:04.316Z,989.86
2022-11-15T09:57:04.332Z,989.80
2022-11-15T09:58:04.332Z,989.75
2022-11-15T09:59:04.291Z,989.78
2022-11-15T10:00:30.842Z,989.84
2022-11-15T10:01:06.376Z,989.77
2022-11-15T10:02:04.307Z,989.77
2022-11-15T10:03:04.302Z,989.75
2022-11-15T10:04:07.815Z,989.84
2022-11-15T10:05:06.247Z,989.84
2022-11-15T10:06:04.245Z,989.78
2022-11-15T10:07:04.311Z,989.82
2022-11-15T10:08:04.227Z,989.76
2022-11-15T10:09:04.222Z,989.81
2022-11-15T10:10:04.302Z,989.79
2022-11-15T10:12:06.223Z,989.79
2022-11-15T10:13:04.186Z,989.70
2022-11-15T10:14:04.181Z,989.79
2022-11-15T10:15:04.172Z,989.71
2022-11-15T10:16:04.198Z,989.73
2022-11-15T10:17:04.151Z,989.72
2022-11-15T10:18:04.159Z,989.70
2022-11-15T10:19:04.143Z,989.61
2022-11-15T10:20:06.235Z,989.67
2022-11-15T10:21:05.161Z,989.70
2022-11-15T10:22:04.121Z,989.59
2022-11-15T10:23:04.118Z,989.62
2022-11-15T10:24:04.103Z,989.64
2022-11-15T10:25:04.106Z,989.58
2022-11-15T10:26:07.031Z,989.63
2022-11-15T10:27:05.082Z,989.52
2022-11-15T10:28:04.076Z,989.51
2022-11-15T10:29:04.067Z,989.54
2022-11-15T10:30:04.059Z,989.50
2022-11-15T10:31:04.083Z,989.48
2022-11-15T10:32:04.070Z,989.41
2022-11-15T10:33:04.037Z,989.46
2022-11-15T10:34:04.024Z,989.43
2022-11-15T10:35:04.029Z,989.36
2022-11-15T10:36:04.042Z,989.35
2022-11-15T10:37:04.013Z,989.42
2022-11-15T10:38:04.006Z,989.33
2022-11-15T10:39:04.859Z,989.36
2022-11-15T10:40:04.830Z,989.36
2022-11-15T10:41:03.974Z,989.31
2022-11-15T10:42:10.167Z,989.34
2022-11-15T10:43:05.985Z,989.29
2022-11-15T10:44:03.948Z,989.30
2022-11-15T10:45:03.949Z,989.25
2022-11-15T10:46:24.687Z,989.19
2022-11-15T10:47:05.957Z,989.21
2022-11-15T10:48:03.919Z,989.16
2022-11-15T10:49:03.920Z,989.16
2022-11-15T10:50:03.915Z,989.20
2022-11-15T10:51:03.890Z,989.12
2022-11-15T10:52:03.908Z,989.17
2022-11-15T10:53:03.904Z,989.15
2022-11-15T10:54:07.763Z,989.12
2022-11-15T10:55:04.867Z,989.14
2022-11-15T10:56:03.873Z,989.12
2022-11-15T10:57:03.901Z,989.08
2022-11-15T10:58:03.838Z,989.05
2022-11-15T10:59:03.831Z,989.00
2022-11-15T11:00:03.850Z,989.07
2022-11-15T11:01:03.847Z,989.06
2022-11-15T11:02:03.888Z,988.96
2022-11-15T11:03:03.805Z,988.98
2022-11-15T11:04:03.794Z,989.04
2022-11-15T11:05:03.782Z,988.93
2022-11-15T11:06:03.777Z,988.90
2022-11-15T11:07:03.868Z,988.95
2022-11-15T11:08:03.786Z,989.00
2022-11-15T11:09:03.788Z,988.91
2022-11-15T11:10:13.307Z,988.82
2022-11-15T11:11:04.820Z,988.92
2022-11-15T11:12:03.785Z,988.83
2022-11-15T11:13:03.731Z,988.85
2022-11-15T11:14:03.740Z,988.84
2022-11-15T11:15:03.748Z,988.78
2022-11-15T11:16:03.719Z,988.84
2022-11-15T11:17:03.750Z,988.82
2022-11-15T11:18:03.700Z,988.79
2022-11-15T11:19:03.691Z,988.84
2022-11-15T11:20:03.695Z,988.78
2022-11-15T11:21:03.675Z,988.82
2022-11-15T11:22:03.703Z,988.80
2022-11-15T11:23:03.648Z,988.84
2022-11-15T11:24:03.652Z,988.76
2022-11-15T11:25:03.637Z,988.72
2022-11-15T11:26:03.656Z,988.79
2022-11-15T11:27:03.613Z,988.76
2022-11-15T11:28:03.649Z,988.75
2022-11-15T11:29:03.600Z,988.78
2022-11-15T11:30:03.590Z,988.73
2022-11-15T11:31:03.584Z,988.77
2022-11-15T11:32:03.582Z,988.74
2022-11-15T11:33:03.662Z,988.71
2022-11-15T11:34:03.568Z,988.73
2022-11-15T11:35:03.579Z,988.67
2022-11-15T11:36:03.571Z,988.69
2022-11-15T11:37:03.549Z,988.66
2022-11-15T11:38:03.566Z,988.68
2022-11-15T11:39:03.536Z,988.62
2022-11-15T11:40:09.115Z,988.62
2022-11-15T11:41:05.568Z,988.66
2022-11-15T11:42:03.673Z,988.67
2022-11-15T11:43:03.499Z,988.67
2022-11-15T11:44:03.495Z,988.62
2022-11-15T11:45:03.496Z,988.58
2022-11-15T11:46:03.482Z,988.68
2022-11-15T11:47:03.731Z,988.59
2022-11-15T11:48:03.485Z,988.55
2022-11-15T11:49:03.460Z,988.60
2022-11-15T11:50:03.444Z,988.57
2022-11-15T11:51:03.476Z,988.56
2022-11-15T11:52:03.420Z,988.52
2022-11-15T11:53:04.371Z,988.48
2022-11-15T11:54:04.409Z,988.51
2022-11-15T11:55:03.404Z,988.49
2022-11-15T11:56:03.394Z,988.51
2022-11-15T11:57:03.415Z,988.47
2022-11-15T11:58:03.382Z,988.51
2022-11-15T11:59:03.365Z,988.48
2022-11-15T12:00:03.359Z,988.44
2022-11-15T12:01:04.672Z,988.46
2022-11-15T12:02:03.450Z,988.50
2022-11-15T12:03:03.451Z,988.48
2022-11-15T12:04:03.346Z,988.47
2022-11-15T12:05:03.322Z,988.49
2022-11-15T12:06:03.320Z,988.49
2022-11-15T12:07:03.488Z,988.40
2022-11-15T12:08:04.427Z,988.39
2022-11-15T12:09:04.293Z,988.36
2022-11-15T12:10:03.282Z,988.41
2022-11-15T12:11:04.279Z,988.35
2022-11-15T12:12:03.549Z,988.35
2022-11-15T12:13:03.298Z,988.33
2022-11-15T12:14:03.265Z,988.26
2022-11-15T12:15:03.276Z,988.29
2022-11-15T12:16:06.076Z,988.24
2022-11-15T12:17:05.244Z,988.26
2022-11-15T12:18:35.214Z,988.20
2022-11-15T12:19:03.221Z,988.27
2022-11-15T12:20:03.215Z,988.26
2022-11-15T12:21:03.219Z,988.32
2022-11-15T12:22:03.217Z,988.17
2022-11-15T12:23:03.224Z,988.25
2022-11-15T12:24:03.182Z,988.12
2022-11-15T12:25:03.185Z,988.10
2022-11-15T12:26:03.170Z,988.14
2022-11-15T12:27:03.153Z,988.08
2022-11-15T12:28:04.182Z,988.03
2022-11-15T12:29:09.320Z,988.02
2022-11-15T12:30:05.139Z,988.04
2022-11-15T12:31:03.129Z,988.07